MET: Información y Pronóstico Aeronáutico

///////////////////////////////////////////////////////////////////////////////////////////////////////////////////////////////////////////////////////////////////////////////////////////////////////////////////////////////////////////////

Member for

1 año 3 meses
Enviado por meteorologia el Jue, 23/11/2017 - 11:39
08-10

08 DE OCTUBRE 2019

INFORMACION METEOROLOGICA AERONAUTICA (METAR) 18:00 UTC

Aeropuerto AEROPARQUE J. NEWBERY

08 - 18:00 METAR SABE 081800Z 26007KT 200V310 CAVOK 26/M02 Q1016 NOSIG =

Aeropuerto BAHIA BLANCA

08 - 18:00 METAR SAZB 081800Z 25007KT CAVOK 21/M01 Q1016 =

Aeropuerto BARILOCHE

08 - 18:00 METAR SAZS 081800Z 29017KT 9999 FEW040 SCT100 10/M03 Q1019 =

Aeropuerto CATAMARCA

08 - 18:00 METAR SANC 081800Z 14004KT 9999 FEW050 32/09 Q1012 =

Aeropuerto CHAPELCO

08 - 18:00 METAR SAZY 081800Z 25015KT 210V290 9999 FEW100 16/M13 Q1017 =

Aeropuerto COMODORO RIVADAVIA

08 - 18:00 METAR SAVC 081800Z 25012G27KT 9999 -SHRA BKN040TCU 17/01 Q1011 =

Aeropuerto CORDOBA

08 - 18:00 METAR SACO 081800Z 04009KT 9999 FEW030 FEW040TCU 26/11 Q1017 NOSIG =

Aeropuerto CORRIENTES

08 - 18:00 METAR SARC 081800Z 14007KT CAVOK 30/12 Q1016 =

Aeropuerto EL CALAFATE

08 - 18:00 METAR SAWC 081800Z 29016KT 9999 FEW045 BKN200 12/M06 Q1008 =

Aeropuerto EL PALOMAR

08 - 18:00 METAR SADP 081800Z 27013KT 230V300 CAVOK 25/M02 Q1016 =

Aeropuerto ESQUEL

08 - 18:00 METAR SAVE 081800Z 27010KT 200V340 9999 FEW040 BKN070 11/M06 Q1017 =

Aeropuerto EZEIZA

08 - 18:00 METAR SAEZ 081800Z 28012KT 230V310 CAVOK 25/03 Q1016 NOSIG =

Aeropuerto FORMOSA

08 - 18:00 METAR SARF 081800Z 14006KT 9999 FEW030 30/18 Q1015 =

Aeropuerto IGUAZU/CATARATAS

08 - 18:00 METAR SARI 081800Z 23006KT 9999 SCT035 BKN200 29/13 Q1016 =

Aeropuerto JUJUY

08 - 18:00 METAR SASJ 081800Z 05010KT 9999 FEW040 32/02 Q1016 =

Aeropuerto LA RIOJA

08 - 18:00 METAR SANL 081800Z 27006KT CAVOK 31/10 Q1013 =

Aeropuerto MALARGUE

08 - 18:00 METAR SAMM 081800Z 20017G32KT CAVOK 22/M09 Q1019 =

Aeropuerto MAR DEL PLATA

08 - 18:00 METAR SAZM 081800Z 21010KT 170V260 9999 FEW045 BKN200 18/04 Q1015 =

Aeropuerto MENDOZA

08 - 18:00 METAR SAME 081800Z 09004KT CAVOK 24/02 Q1017 =

Aeropuerto MORON

08 - 17:00 METAR SADM 081700Z 23013KT CAVOK 25/04 Q1016 =

Aeropuerto NEUQUEN

08 - 18:00 METAR SAZN 081800Z 25006KT CAVOK 21/M08 Q1017 =

Aeropuerto PARANA

08 - 18:00 METAR SAAP 081800Z 36006KT 9999 TS FEW050CB BKN100 18/15 Q1019 RERA =

Aeropuerto POSADAS

08 - 18:00 METAR SARP 081800Z 07006KT 9999 FEW040 30/15 Q1017 =

Aeropuerto PUERTO MADRYN

08 - 18:00 METAR SAVY 081800Z 23020KT 9999 SCT025 18/02 Q1013 =

Aeropuerto RECONQUISTA

08 - 18:00 METAR SATR 081800Z 09008KT 9999 FEW030 SCT200 29/15 Q1016 =

Aeropuerto RESISTENCIA

08 - 18:00 METAR SARE 081800Z 14007KT 110V170 CAVOK 30/12 Q1015 =

Aeropuerto RIO CUARTO

08 - 18:00 METAR SAOC 081800Z 02024KT CAVOK 27/04 Q1016 RMK ESTIMATED WIND =

Aeropuerto RIO GALLEGOS

08 - 18:00 METAR SAWG 081800Z 25027G38KT CAVOK 11/M09 Q1003 =

Aeropuerto RIO GRANDE

08 - 18:00 METAR SAWE 081800Z 25027G37KT 9999 SCT020 BKN100 08/M04 Q0997 =

Aeropuerto ROSARIO

08 - 18:00 METAR SAAR 081800Z 36007KT 9999 FEW040TCU BKN100 24/10 Q1018 =

Aeropuerto SALTA

08 - 18:00 METAR SASA 081800Z 02010KT 9999 FEW030 29/05 Q1017 =

Aeropuerto SAN FERNANDO

08 - 18:00 METAR SADF 081800Z 27012KT CAVOK 26/02 Q1016 =

Aeropuerto SAN JUAN

08 - 18:00 METAR SANU 081800Z 18003KT CAVOK 26/02 Q1016 =

Aeropuerto SAN LUIS

08 - 18:00 METAR SAOU 081800Z 27005KT 9999 FEW040 BKN200 28/04 Q1016 =

Aeropuerto SAN RAFAEL

08 - 18:00 METAR SAMR 081800Z 09009KT CAVOK 23/03 Q1017 =

Aeropuerto SANTA ROSA

08 - 18:00 METAR SAZR 081800Z 25008KT CAVOK 25/M01 Q1016 =

Aeropuerto SANTIAGO DEL ESTERO

08 - 18:00 METAR SANE 081800Z 09009KT 9999 FEW035 SCT070 33/11 Q1013 =

Aeropuerto SAUCE VIEJO

08 - 18:00 METAR SAAV 081800Z 11004KT CAVOK 18/14 Q1018 =

Aeropuerto TANDIL

08 - 18:00 METAR SAZT 081800Z 27009KT CAVOK 20/M01 Q1015 =

Aeropuerto TERMAS DE RIO HONDO

08 - 14:00 METAR SANR 081400Z 23008KT CAVOK 27/12 Q1017 =

Aeropuerto TRELEW

08 - 18:00 METAR SAVT 081800Z 23014KT 180V320 9999 BKN035 18/M03 Q1013 =

Aeropuerto TUCUMAN

08 - 18:00 METAR SANT 081800Z 09005KT 6000 NSC 32/12 Q1014 =

Aeropuerto USHUAIA

08 - 18:00 METAR SAWH 081800Z 23025KT 9999 VCSH BKN040 BKN100 06/M02 Q0993 =

Aeropuerto VIEDMA

08 - 18:00 METAR SAVV 081800Z 23015KT CAVOK 18/M00 Q1015 =

Aeropuerto VILLA REYNOLDS

08 - 18:00 METAR SAOR 081800Z 09013KT 9999 FEW030TCU 27/03 Q1016 =

 PRONOSTICO DE AERODROMO (TAF) 17:00 UTC

Estación AEROPARQUE J. NEWBERY

08 - 17:00 TAF SABE 081700Z 0818/0918 25010KT CAVOK TX27/0918Z TN16/0911Z BECMG 0820/0822 VRB03KT BECMG 0824/0902 35005KT BECMG 0912/0914 36010KT 9999 SCT040 SCT100 PROB30 TEMPO 0916/0918 7000 SHRA BKN025 FEW040TCU =

Estación BAHIA BLANCA

08 - 17:00 TAF SAZB 081700Z 0818/0918 23010KT CAVOK TX23/0918Z TN08/0910Z BECMG 0822/0901 34005KT BECMG 0905/0907 27010KT BECMG 0916/0918 25015KT =

Estación BARILOCHE

08 - 17:00 TAF SAZS 081700Z 0818/0918 30020KT 9999 SCT040 TX11/0918Z TN05/0910Z BECMG 0822/0900 29010KT CAVOK BECMG 0906/0908 29015KT BKN010 BECMG 0912/0915 29020G30KT BKN020 =

Estación CATAMARCA

08 - 17:00 TAF SANC 081700Z 0818/0918 02015KT CAVOK TX35/0918Z TN13/0910Z BECMG 0906/0909 27005KT BECMG 0917/0918 05015G25KT =

Estación CHAPELCO

08 - 17:00 TAF SAZY 081700Z 0818/0918 25015KT CAVOK TX16/0918Z TN01/0910Z BECMG 0821/0823 29005KT BECMG 0906/0908 5000 BR SCT010 BECMG 0912/0915 25015KT CAVOK =

Estación COMODORO RIVADAVIA

08 - 17:00 SAVC 081700Z 0818/0918 27018G28KT 9999 SCT030 SCT080 TX18/0819Z TN06/0909Z PROB40 TEMPO 0818/0822 SHRA BKN030 FEW040TCU BECMG 0900/0902 27025G40KT BECMG 0908/0910 25020KT CAVOK BECMG 0915/0917 25012KT =

Estación CORDOBA

08 - 17:00 TAF SACO 081700Z 0818/0918 11005KT 9999 FEW030 TX32/0918Z TN14/0910Z BECMG 0820/0822 05010KT TEMPO 0916/0918 02015G25KT 9999 VCSH SCT030 FEW035TCU =

Estación CORRIENTES

08 - 17:00 TAF SARC 081700Z 0818/0918 11010KT CAVOK TX31/0918Z TN16/0910Z PROB30 0907/0911 2000 BR NSC =

Estación EL CALAFATE

08 - 17:00 TAF SAWC 081700Z 0818/0918 25020G30KT 9999 SCT030 SCT040 TX12/0819Z TN02/0910Z TEMPO 0818/0820 25015KT =

Estación EL PALOMAR

08 - 17:00 TAF SADP 081700Z 0818/0918 29015G25KT CAVOK TX26/0917Z TN13/0910Z BECMG 0821/0900 34005KT PROB30 TEMPO 0909/0911 VRB03KT 5000 BR NSC BECMG 0912/0913 36015KT BECMG 0916/0918 9999 SCT025 SCT050 =

Estación ESQUEL

08 - 17:00 TAF SAVE 081700Z 0818/0918 25015G25KT 9999 SCT020 BKN070 TX13/0819Z TN02/0910Z PROB30 TEMPO 0818/0822 26025G35KT BECMG 0822/0824 27010KT SCT030 BKN070 =

Estación EZEIZA

08 - 17:00 TAF SAEZ 081700Z 0818/0918 28010KT CAVOK TX26/0917Z TN11/0910Z BECMG 0900/0902 27005KT PROB30 TEMPO 0909/0911 VRB03KT 5000 BR NSC BECMG 0912/0914 34010KT BECMG 0916/0918 9999 SCT025 SCT050 =

Estación FORMOSA

08 - 17:00 TAF SARF 081700Z 0818/0918 11005KT 9999 SCT030 TX31/0918Z TN15/0910Z BECMG 0823/0824 CAVOK PROB30 0907/0911 3000 BR NSC =

Estación IGUAZU/CATARATAS

08 - 17:00 TAF SARI 081700Z 0818/0918 20005KT 9999 SCT035 TX31/0918Z TN15/0910Z BECMG 0822/0824 11005KT CAVOK PROB40 0907/0911 0500 BCFG NSC =

Estación JUJUY

08 - 17:00 TAF SASJ 081700Z 0818/0918 02015KT CAVOK TX33/0918Z TN11/0910Z BECMG 0903/0906 27005KT =

Estación LA RIOJA

08 - 17:00 TAF SANL 081700Z 0818/0918 20005KT CAVOK TX32/0918Z TN12/0910Z =

Estación MAR DEL PLATA

08 - 17:00 TAF SAZM 081700Z 0818/0918 23015KT CAVOK TX22/0917Z TN06/0909Z BECMG 0901/0903 34005KT BECMG 0912/0914 32015KT =

Estación MENDOZA

08 - 17:00 TAF SAME 081700Z 0818/0918 05005KT CAVOK TX27/0820Z TN12/0911Z BECMG 0900/0902 VRB03KT =

Estación NEUQUEN

08 - 17:00 TAF SAZN 081700Z 0818/0918 26015KT CAVOK TX21/0819Z TN10/0910Z BECMG 0822/0900 27010KT BECMG 0913/0915 25010KT =

Estación PARANA

08 - 17:00 TAF SAAP 081700Z 0818/0918 02005KT 9000 TSRA BKN045 FEW050CB TX29/0918Z TN12/0909Z BECMG 0819/0822 07010KT 9999 SCT030 BECMG 0905/0907 05005KT 3000 BR SCT010 PROB30 TEMPO 0906/0910 0800 FG SCT008 BECMG 0912/0914 06015KT CAVOK =

Estación POSADAS

08 - 17:00 TAF SARP 081700Z 0818/0918 14005KT 9999 SCT040 TX31/0918Z TN16/0910Z BECMG 0822/08024 CAVOK PROB40 0907/0911 2000 BR NSC =

Estación RESISTENCIA

08 - 17:00 TAF SARE 081700Z 0818/0918 11010KT CAVOK TX31/0918Z TN16/0910Z PROB30 0907/0911 2000 BR NSC =

Estación RIO CUARTO

08 - 17:00 TAF SAOC 081700Z 0818/0918 05020G30KT CAVOK TX31/0918Z TN08/0910Z BECMG 0900/0903 36010KT BECMG 0912/0915 02005KT =

Estación RIO GALLEGOS

08 - 17:00 TAF SAWG 081700Z 0818/0918 25030G40KT 9999 SCT030 SCT040 TX12/0819Z TN01/0910Z TEMPO 0818/0903 26040G55KT BECMG 0905/0907 25020G30KT SCT030 BKN070 BECMG 0916/0918 26030G45KT -SHRA SCT030 FEW040TCU =

Estación RIO GRANDE

08 - 17:00 TAF SAWE 081700Z 0818/0918 25022G32KT 9999 SCT020 SCT040 TX10/0819Z TN01/0910Z BECMG 0819/0821 27030G45KT BKN030 BKN060 BECMG 0901/0903 25020G30KT SCT030 SCT080 =

Estación ROSARIO

08 - 17:00 TAF SAAR 081700Z 0818/0918 02010KT 9999 FEW040TCU BKN100 TX27/0918Z TN15/0810Z BECMG 0901/0903 04005KT 9999 BKN025 TEMPO 0904/0908 6000 SHRA BKN020 FEW040TCU BECMG 0909/0911 09010KT 7000 BKN018 BECMG 0912/0914 05015KT 9999 BKN018 FEW040TCU BKN100 =

Estación SALTA

08 - 17:00 TAF SASA 081700Z 0818/0918 05010KT 9999 SCT030 TX33/0918Z TN08/0910Z BECMG 0900/0903 27005KT =

Estación SAN FERNANDO

08 - 17:00 TAF SADF 081700Z 0818/0918 24010KT CAVOK TX27/0918Z TN14/0910Z BECMG 0901/0903 35005KT PROB30 TEMPO 0910/0912 5000 BR NSC BECMG 0913/0915 29010KT 9999 SCT020 SCT100 =

Estación SAN JUAN

08 - 17:00 TAF SANU 081700Z 0818/0918 16010KT CAVOK TX29/0821Z TN13/0911Z BECMG 0902/0904 VRB03KT BECMG 0910/0912 16010KT =

Estación SAN LUIS

08 - 17:00 TAF SAOU 081700Z 0818/0918 36010KT CAVOK TX30/0819Z TN14/0910Z =

Estación SAN RAFAEL

08 - 17:00 TAF SAMR 081700Z 0818/0918 03010KT CAVOK TX25/0820Z TN07/0911Z BECMG 0903/0905 25005KT BECMG 0909/0911 16010KT =

Estación SANTA ROSA

08 - 17:00 TAF SAZR 081700Z 0818/0918 25008KT CAVOK TX28/0918Z TN12/0910Z =

Estación SANTIAGO DEL ESTERO

08 - 17:00 TAF SANE 081700Z 0818/0918 05015KT CAVOK TX34/0918Z TN15/0910Z BECMG 0900/0903 02005KT BECMG 0916/0918 02015G25KT =

Estación SAUCE VIEJO

08 - 17:00 TAF SAAV 081700Z 0818/0918 07005KT 9000 TSRA FEW050CB OVC060 TX29/0918Z TN12/0909Z BECMG 0819/0822 07010KT 9999 SCT030 BECMG 0905/0907 05005KT 3000 BR SCT010 PROB30 TEMPO 0906/0910 0800 FG SCT008 BECMG 0912/0914 06015KT CAVOK =

Estación TERMAS DE RIO HONDO

08 - 17:00 TAF SANR 081700Z 0818/0918 02005KT CAVOK TX34/0918Z TN15/0910Z BECMG 0916/0917 05015KT =

Estación TRELEW

08 - 17:00 TAF SAVT 081700Z 0818/0918 25020KT 9999 FEW030 SCT040 TX20/0819Z TN07/0910Z BECMG 0821/0823 25015KT TEMPO 0822/0902 VRB05KT =

Estación TUCUMAN

08 - 17:00 TAF SANT 081700Z 0818/0918 18005KT 5000 FU NSC TX36/0918Z TN20/0910Z BECMG 0900/0903 02005KT 8000 NSC =

Estación USHUAIA

08 - 17:00 TAF SAWH 081700Z 0818/0918 23020KT 9999 SCT020 BKN040 TX06/0819Z TNM01/0909Z BECMG 0819/0821 28015KT 9999 SCT030 BKN060 BECMG 0823/0901 25025G35KT 5000 SN OVC015 PROB30 TEMPO 0906/0610 1000 +SN OVC010 =

Estación VIEDMA

08 - 17:00 TAF SAVV 081700Z 0818/0918 25015G25KT CAVOK TX21/0819Z TN07/0911Z BECMG 0819/0821 05010KT FEW030 SCT070 BECMG 0901/0903 VRB05KT BECMG 0907/0909 21012KT =